Hlavní strana
METAR-TAF:

METAR-TAF

Letiště :

N'Djamena, Čad

zeměpisná šířka: 12-08N, zeměpisná délka: 015-02E, výška: 295 m

Aktuální stav počasí

Zpráva byla vytvořena před 55 minutami, v 23:00 UTC
Severní vítr 7 kt
Teplota 21°C
Vlhkost vzduchu 21%
Tlak 1012 hPa
Viditelnost 10 km a více
Žádná oblačnost pod 1500 m, nevyskytují se cumulonimby.

METAR: FTTJ 122300Z 35007KT CAVOK 21/M02 Q1012 NOSIG

Čas: 00:55 (23:55 UTC)

Předpověď počasí

Zpráva byla vytvořena před 55 minutami, v 23:00 UTC
Předpověď platná od 13 v 00 UTC do 14 v 06 UTC
Severoseverozápadní vítr 6 kt
Viditelnost: 8000 m
Změna
od 13 v 01 UTC do 13 v 03 UTC
Viditelnost: 3000 m
rozsáhlý prach
Dočasný
od 13 v 03 UTC do 13 v 07 UTC
Viditelnost: 1500 m
Změna
od 13 v 07 UTC do 13 v 09 UTC
Severovýchodní vítr 12 kt
Viditelnost: 6000 m

TAF: FTTJ 122300Z 1300/1406 34006KT 8000 NSC BECMG 1301/1303 3000 DU TEMPO 1303/1307 1500 BECMG 1307/1309 04012KT 6000 NSC

Stav a předpovědi počasí z více než 4 000 letišť (zprávy METAR a TAF).

Červené a žluté tečky na mapě představují dostupné meteorologické stanice.

Když kurzor umístíte na tečku, zobrazí se název stanice.

Pak kliknutím zobrazíte stav a předpověď počasí.

Chcete-li změnit mapu, kliknutím na zelené tlačítko se znaménkem +mapu přiblížíte, kliknutím na zelené tlačítko se znaménkem – mapu oddálíte a kliknutím na zelené šipky přejdete na sousední mapy.


METAR-TAF: